Time;durP1;ratioP1;P1;durP2;ratioP2;P2;SDS_P1;SDS_P2;PMS_P1;PMS_P2;Temp;Humidity;BMP_temperature;BMP_pressure;BME280_temperature;BME280_humidity;BME280_pressure;Samples;Min_cycle;Max_cycle;Signal;HPM_P1;HPM_P2
2023/12/25 00:00:57;;;;;;;32.53;16.73;;;;;;;-141.97;59.60;45935.69;5068968;28;20168;-85
2023/12/25 00:03:22;;;;;;;35.20;15.67;;;;;;;-141.97;59.90;46343.00;5071194;28;20161;-85
2023/12/25 00:05:48;;;;;;;34.37;18.10;;;;;;;-141.97;59.75;46047.13;5068782;28;20169;-85
2023/12/25 00:08:13;;;;;;;35.53;17.10;;;;;;;-141.97;60.23;45885.72;5070635;28;20566;-85
2023/12/25 00:10:38;;;;;;;32.57;17.40;;;;;;;-141.97;60.54;45912.63;5070317;28;20188;-83
2023/12/25 00:13:04;;;;;;;53.37;24.47;;;;;;;-141.97;60.70;45931.84;5070277;28;20192;-85
2023/12/25 00:15:29;;;;;;;44.93;21.73;;;;;;;-141.97;60.95;46446.75;5070738;28;20177;-85
2023/12/25 00:17:55;;;;;;;74.17;30.00;;;;;;;-141.97;61.44;45997.16;5068578;28;20681;-84
2023/12/25 00:20:23;;;;;;;59.67;27.20;;;;;;;-141.97;61.97;45928.00;5083486;28;20167;-87
2023/12/25 00:22:48;;;;;;;52.70;23.67;;;;;;;-141.97;62.40;45860.75;5094685;28;20176;-86
2023/12/25 00:25:14;;;;;;;63.50;27.67;;;;;;;-141.97;62.67;46383.34;5088091;28;20613;-85
2023/12/25 00:27:39;;;;;;;57.97;26.43;;;;;;;-141.97;63.03;46404.47;5069800;28;20185;-85
2023/12/25 00:30:05;;;;;;;71.63;29.60;;;;;;;-141.97;63.72;46271.91;5068634;28;20359;-85
2023/12/25 00:32:31;;;;;;;76.00;31.77;;;;;;;-141.97;63.65;46383.34;5069893;28;20279;-85
2023/12/25 00:34:56;;;;;;;60.83;27.87;;;;;;;-141.97;64.58;45858.84;5068682;28;20219;-86
2023/12/25 00:37:21;;;;;;;50.57;21.17;;;;;;;-141.97;64.95;45889.56;5069935;28;20282;-85
2023/12/25 00:39:47;;;;;;;50.10;23.43;;;;;;;-141.97;64.89;46341.06;5069881;28;20193;-85
2023/12/25 00:42:12;;;;;;;54.13;24.53;;;;;;;-141.97;64.64;46408.31;5069804;28;20254;-85
2023/12/25 00:44:38;;;;;;;46.67;21.73;;;;;;;-141.97;64.77;46391.03;5072683;28;20252;-85
2023/12/25 00:47:03;;;;;;;38.33;17.23;;;;;;;-141.97;63.91;45928.00;5073565;28;20176;-85
2023/12/25 00:49:28;;;;;;;41.30;20.50;;;;;;;-141.97;64.78;45839.63;5072164;28;20318;-85
2023/12/25 00:51:54;;;;;;;46.20;21.83;;;;;;;-141.97;65.25;45912.63;5073452;28;20164;-85
2023/12/25 00:54:19;;;;;;;44.07;20.07;;;;;;;-141.97;65.35;46429.47;5073959;28;20153;-85
2023/12/25 00:56:45;;;;;;;36.13;17.83;;;;;;;-141.97;64.90;46279.59;5075141;28;20268;-85
2023/12/25 00:59:11;;;;;;;32.03;16.10;;;;;;;-141.97;64.79;46077.84;5073453;28;20191;-85
2023/12/25 01:01:37;;;;;;;29.73;14.50;;;;;;;-141.97;64.28;45889.56;5073665;28;20192;-84
2023/12/25 01:04:02;;;;;;;27.93;14.40;;;;;;;-141.97;64.38;45993.31;5076433;28;20697;-85
2023/12/25 01:06:27;;;;;;;25.27;12.00;;;;;;;-141.97;64.32;46070.16;5067697;28;20259;-84
2023/12/25 01:08:56;;;;;;;24.20;12.87;;;;;;;-141.97;64.25;46293.03;5052825;28;20261;-84
2023/12/25 01:11:22;;;;;;;27.93;13.50;;;;;;;-141.97;64.54;45977.94;5054060;28;20189;-85
2023/12/25 01:13:47;;;;;;;26.33;11.97;;;;;;;-141.97;64.54;46058.63;5055902;28;20473;-84
2023/12/25 01:16:13;;;;;;;26.17;13.33;;;;;;;-141.97;64.72;45991.41;5067174;28;20184;-85
2023/12/25 01:18:38;;;;;;;25.00;13.20;;;;;;;-141.97;65.12;45912.63;5066497;28;20161;-86
2023/12/25 01:21:04;;;;;;;27.30;13.63;;;;;;;-141.97;65.58;45968.34;5066460;28;20615;-85
2023/12/25 01:23:29;;;;;;;26.03;12.70;;;;;;;-141.97;65.42;45866.53;5071491;28;20161;-84
2023/12/25 01:25:55;;;;;;;25.60;12.07;;;;;;;-141.97;65.47;46066.31;5071631;28;20187;-85
2023/12/25 01:28:20;;;;;;;22.60;11.60;;;;;;;-141.97;65.44;45972.19;5072991;28;20168;-85
2023/12/25 01:30:45;;;;;;;21.53;11.40;;;;;;;-141.97;65.40;45920.31;5072655;28;20528;-85
2023/12/25 01:33:14;;;;;;;22.40;11.63;;;;;;;-141.97;64.94;45972.19;5072380;28;20169;-84
2023/12/25 01:35:39;;;;;;;23.40;11.93;;;;;;;-141.97;64.76;45858.84;5072899;28;20647;-85
2023/12/25 01:38:04;;;;;;;22.90;11.10;;;;;;;-141.97;64.41;46354.53;5071309;28;20403;-84
2023/12/25 01:40:30;;;;;;;23.10;10.90;;;;;;;-141.97;64.21;46408.31;5072990;28;20209;-84
2023/12/25 01:42:56;;;;;;;19.37;10.50;;;;;;;-141.97;63.98;46271.91;5071174;28;20608;-84
2023/12/25 01:45:21;;;;;;;23.90;11.03;;;;;;;-141.97;63.67;46070.16;5072678;28;20176;-83
2023/12/25 01:47:48;;;;;;;22.80;11.20;;;;;;;-141.97;63.95;46093.22;5072826;28;20248;-84
2023/12/25 01:50:14;;;;;;;22.53;11.37;;;;;;;-141.97;64.32;46362.22;5072467;28;20256;-84
2023/12/25 01:52:40;;;;;;;25.93;12.33;;;;;;;-141.97;64.22;46266.13;5071081;28;20403;-84
2023/12/25 01:55:07;;;;;;;24.30;11.83;;;;;;;-141.97;64.58;46145.09;5071637;28;20460;-85
2023/12/25 01:57:33;;;;;;;22.20;11.37;;;;;;;-141.97;64.88;46369.88;5072354;28;20169;-86
2023/12/25 01:59:59;;;;;;;24.67;12.20;;;;;;;-141.97;65.05;45931.84;5072197;28;20403;-85
2023/12/25 02:02:24;;;;;;;23.23;12.90;;;;;;;-141.97;64.63;45939.53;5072577;28;20180;-85
2023/12/25 02:04:50;;;;;;;28.27;13.03;;;;;;;-141.97;64.37;46358.38;5070825;28;20169;-85
2023/12/25 02:07:15;;;;;;;29.57;13.47;;;;;;;-141.97;64.24;46122.03;5070811;28;20535;-85
2023/12/25 02:09:46;;;;;;;34.03;16.67;;;;;;;-141.97;63.94;45926.06;5070960;28;20196;-85
2023/12/25 02:12:12;;;;;;;31.53;16.77;;;;;;;-141.97;64.91;45966.44;5070342;28;20248;-85
2023/12/25 02:14:37;;;;;;;36.60;18.43;;;;;;;-141.97;65.40;46373.72;5070689;28;20647;-86
2023/12/25 02:17:03;;;;;;;32.47;15.77;;;;;;;-141.97;65.09;46562.03;5072665;28;20240;-85
2023/12/25 02:19:36;;;;;;;29.77;14.73;;;;;;;-141.97;65.68;45870.38;5073244;28;20153;-83
2023/12/25 02:22:02;;;;;;;31.73;15.47;;;;;;;-141.97;65.95;46346.84;5071951;28;20165;-84
2023/12/25 02:24:30;;;;;;;24.33;13.43;;;;;;;-141.97;66.76;46031.75;5079232;28;20399;-84
2023/12/25 02:26:56;;;;;;;26.60;14.00;;;;;;;-141.97;66.86;46410.25;5093924;28;20161;-83
2023/12/25 02:29:21;;;;;;;29.97;14.97;;;;;;;-141.97;67.16;45901.09;5087136;28;20501;-84
2023/12/25 02:31:48;;;;;;;27.37;13.90;;;;;;;-141.97;67.64;45885.72;5078135;28;20566;-84
2023/12/25 02:34:14;;;;;;;34.30;15.73;;;;;;;-141.97;67.66;46283.44;5077928;28;20172;-85
2023/12/25 02:36:39;;;;;;;32.70;15.20;;;;;;;-141.97;67.68;46569.72;5080224;28;20793;-84
2023/12/25 02:39:05;;;;;;;32.13;16.40;;;;;;;-141.97;67.98;46454.44;5072226;28;20165;-84
2023/12/25 02:41:30;;;;;;;36.03;18.60;;;;;;;-141.97;68.21;46512.06;5072729;28;20164;-85
2023/12/25 02:43:56;;;;;;;37.00;18.47;;;;;;;-141.97;68.52;45860.75;5075313;28;20191;-84
2023/12/25 02:46:21;;;;;;;37.23;18.70;;;;;;;-141.97;68.82;46131.66;5094719;28;20200;-85
2023/12/25 02:48:47;;;;;;;37.83;18.20;;;;;;;-141.97;69.07;45926.06;5096345;28;20220;-86
2023/12/25 02:51:12;;;;;;;35.83;17.33;;;;;;;-141.97;68.91;46074.00;5077329;28;20287;-85
2023/12/25 02:53:37;;;;;;;35.27;17.43;;;;;;;-141.97;69.24;46458.28;5071008;28;20214;-85
2023/12/25 02:56:03;;;;;;;33.80;17.13;;;;;;;-141.97;69.46;46108.59;5071677;28;20173;-85
2023/12/25 02:58:29;;;;;;;32.73;16.40;;;;;;;-141.97;70.02;45985.63;5071682;28;20171;-84
2023/12/25 03:00:54;;;;;;;36.80;17.43;;;;;;;-141.97;70.34;46145.09;5071367;28;20189;-85
2023/12/25 03:03:19;;;;;;;30.63;16.17;;;;;;;-141.97;70.68;45855.00;5069770;28;20165;-85
2023/12/25 03:05:45;;;;;;;33.30;15.73;;;;;;;-141.97;71.13;46062.47;5077847;28;20165;-85
2023/12/25 03:08:10;;;;;;;28.50;15.97;;;;;;;-141.97;70.88;46475.56;5072469;28;20187;-85
2023/12/25 03:10:36;;;;;;;29.10;14.90;;;;;;;-141.97;70.84;46074.00;5069257;28;20193;-85
2023/12/25 03:13:01;;;;;;;28.93;14.60;;;;;;;-141.97;71.45;45993.31;5069904;28;20188;-85
2023/12/25 03:15:27;;;;;;;27.57;13.47;;;;;;;-141.97;71.39;46008.69;5071132;28;20233;-84
2023/12/25 03:17:52;;;;;;;23.47;12.93;;;;;;;-141.97;71.36;46346.84;5070919;28;20239;-84
2023/12/25 03:20:17;;;;;;;24.50;12.63;;;;;;;-141.97;71.68;46112.44;5071629;28;20214;-83
2023/12/25 03:22:44;;;;;;;26.80;12.77;;;;;;;-141.97;71.24;45954.91;5069670;28;20632;-83
2023/12/25 03:25:10;;;;;;;25.63;12.90;;;;;;;-141.97;71.00;46058.63;5069894;28;20188;-84
2023/12/25 03:27:35;;;;;;;25.27;12.63;;;;;;;-141.97;70.88;46515.91;5069975;28;20462;-84
2023/12/25 03:30:01;;;;;;;26.93;13.07;;;;;;;-141.97;71.39;46108.59;5070976;28;20303;-85
2023/12/25 03:32:26;;;;;;;23.10;12.10;;;;;;;-141.97;71.28;45995.25;5069617;28;20176;-84
2023/12/25 03:34:52;;;;;;;23.37;11.73;;;;;;;-141.97;71.60;46079.78;5069592;28;20168;-84
2023/12/25 03:37:17;;;;;;;27.47;13.17;;;;;;;-141.97;71.50;46492.88;5069278;28;20171;-84
2023/12/25 03:39:43;;;;;;;27.17;12.20;;;;;;;-141.97;71.80;46421.78;5070642;28;20316;-84
2023/12/25 03:42:08;;;;;;;23.00;12.53;;;;;;;-141.97;71.68;46085.53;5069730;28;20222;-84
2023/12/25 03:44:34;;;;;;;28.10;14.17;;;;;;;-141.97;71.68;46135.50;5070824;28;20156;-84
2023/12/25 03:46:59;;;;;;;29.63;15.33;;;;;;;-141.97;72.55;46262.28;5070413;28;20169;-84
2023/12/25 03:49:25;;;;;;;27.30;14.07;;;;;;;-141.97;73.30;45956.81;5068632;28;20669;-84
2023/12/25 03:51:50;;;;;;;24.17;12.07;;;;;;;-141.97;73.09;46483.25;5070372;28;20164;-85
2023/12/25 03:54:15;;;;;;;26.37;12.70;;;;;;;-141.97;72.66;46083.63;5070630;28;20534;-85
2023/12/25 03:56:41;;;;;;;23.13;12.10;;;;;;;-141.97;71.81;46027.91;5070314;28;20157;-85
2023/12/25 03:59:08;;;;;;;22.53;10.90;;;;;;;-141.97;71.61;45928.00;5070449;28;20161;-84
2023/12/25 04:01:38;;;;;;;17.67;9.30;;;;;;;-141.97;70.78;46089.38;5069399;28;20190;-84
2023/12/25 04:04:04;;;;;;;20.50;9.73;;;;;;;-141.97;69.82;46308.41;5070914;28;20784;-85
2023/12/25 04:06:29;;;;;;;15.63;8.23;;;;;;;-141.97;70.08;45908.78;5070229;28;20426;-85
2023/12/25 04:08:54;;;;;;;19.20;8.80;;;;;;;-141.97;69.25;46569.72;5070264;28;20175;-85
2023/12/25 04:11:21;;;;;;;17.03;8.53;;;;;;;-141.97;68.50;46089.38;5068598;28;20188;-84
2023/12/25 04:13:47;;;;;;;15.37;7.87;;;;;;;-141.97;68.05;46077.84;5068436;28;20255;-84
2023/12/25 04:16:26;;;;;;;16.30;8.50;;;;;;;-141.97;67.81;46075.94;5069901;28;20407;-84
2023/12/25 04:18:53;;;;;;;16.23;8.43;;;;;;;-141.97;67.58;45974.09;5070059;28;20486;-84
2023/12/25 04:21:25;;;;;;;14.73;8.87;;;;;;;-141.97;67.92;46358.38;5070188;28;20399;-84
2023/12/25 04:23:51;;;;;;;16.33;8.30;;;;;;;-141.97;68.27;46060.56;5069820;28;20403;-85
2023/12/25 04:26:18;;;;;;;16.63;8.13;;;;;;;-141.97;68.85;45926.06;5068787;28;20484;-85
2023/12/25 04:28:44;;;;;;;14.67;8.03;;;;;;;-141.97;68.65;46081.69;5068766;28;20407;-84
2023/12/25 04:31:09;;;;;;;20.33;10.10;;;;;;;-141.97;68.60;45814.66;5070382;28;20439;-84
2023/12/25 04:33:35;;;;;;;18.03;9.27;;;;;;;-141.97;68.10;46496.72;5068639;28;20919;-85
2023/12/25 04:36:00;;;;;;;19.50;9.83;;;;;;;-141.97;68.01;46081.69;5070126;28;20256;-84
2023/12/25 04:38:25;;;;;;;18.67;8.63;;;;;;;-141.97;67.72;46070.16;5069947;28;20163;-85
2023/12/25 04:40:51;;;;;;;14.60;7.80;;;;;;;-141.97;68.01;46102.81;5069855;28;20236;-85
2023/12/25 04:43:16;;;;;;;17.80;7.40;;;;;;;-141.97;67.49;45783.91;5069916;28;20667;-85
2023/12/25 04:45:42;;;;;;;13.10;7.43;;;;;;;-141.97;67.75;45828.09;5068647;28;20176;-84
2023/12/25 04:48:07;;;;;;;18.23;7.87;;;;;;;-141.97;67.93;46050.97;5069647;28;20176;-84
2023/12/25 04:50:33;;;;;;;10.70;6.90;;;;;;;-141.97;68.21;45876.13;5069446;28;20415;-84
2023/12/25 04:52:59;;;;;;;13.83;7.37;;;;;;;-141.97;68.51;45947.22;5068670;28;20168;-86
2023/12/25 04:55:25;;;;;;;14.73;6.80;;;;;;;-141.97;68.21;46035.59;5069079;28;20176;-84
2023/12/25 04:57:51;;;;;;;12.43;7.07;;;;;;;-141.97;68.22;46020.22;5068396;28;20621;-84
2023/12/25 05:00:16;;;;;;;13.73;6.63;;;;;;;-141.97;68.81;45897.25;5068511;28;20425;-84
2023/12/25 05:02:42;;;;;;;11.80;5.67;;;;;;;-141.97;68.71;46360.28;5069596;28;20247;-84
2023/12/25 05:05:07;;;;;;;14.63;7.00;;;;;;;-141.97;67.93;46442.91;5068152;28;20169;-83
2023/12/25 05:07:33;;;;;;;12.60;6.67;;;;;;;-141.97;67.76;45851.16;5069750;28;20173;-84
2023/12/25 05:09:58;;;;;;;15.43;8.17;;;;;;;-141.97;67.79;45945.28;5082808;28;20226;-85
2023/12/25 05:12:24;;;;;;;18.07;8.23;;;;;;;-141.97;67.03;45891.50;5094049;28;20165;-86
2023/12/25 05:14:49;;;;;;;18.80;9.27;;;;;;;-141.97;67.56;46099.00;5089521;28;20202;-84
2023/12/25 05:17:17;;;;;;;34.07;16.80;;;;;;;-141.97;67.51;46473.66;5070190;28;20619;-85
2023/12/25 05:19:43;;;;;;;31.73;15.80;;;;;;;-141.97;68.14;45885.72;5068330;28;20259;-85
2023/12/25 05:22:08;;;;;;;14.23;6.40;;;;;;;-141.97;67.61;46235.41;5069749;28;20399;-86
2023/12/25 05:24:34;;;;;;;12.60;5.83;;;;;;;-141.97;67.34;45874.22;5068214;28;20417;-86
2023/12/25 05:26:59;;;;;;;13.47;6.27;;;;;;;-141.97;68.07;45928.00;5069507;28;20186;-85
2023/12/25 05:29:25;;;;;;;14.47;6.10;;;;;;;-141.97;67.64;45974.09;5075290;28;20225;-85
2023/12/25 05:31:50;;;;;;;15.10;7.40;;;;;;;-141.97;68.56;45910.72;5083520;28;20209;-86
2023/12/25 05:34:18;;;;;;;14.50;7.07;;;;;;;-141.97;68.33;45791.59;5087015;28;20184;-86
2023/12/25 05:36:44;;;;;;;14.60;7.60;;;;;;;-141.97;68.13;45920.31;5081303;28;20188;-85
2023/12/25 05:39:09;;;;;;;26.10;12.93;;;;;;;-141.97;67.97;46054.81;5080197;28;20430;-85
2023/12/25 05:41:35;;;;;;;19.00;8.97;;;;;;;-141.97;67.84;45972.19;5081143;28;20176;-86
2023/12/25 05:44:00;;;;;;;18.53;9.77;;;;;;;-141.97;67.67;45966.44;5082330;28;20264;-85
2023/12/25 05:46:25;;;;;;;23.63;13.13;;;;;;;-141.97;67.97;45958.75;5086325;28;20187;-85
2023/12/25 05:48:51;;;;;;;32.87;16.63;;;;;;;-141.97;68.13;46525.53;5092942;28;20176;-86
2023/12/25 05:51:16;;;;;;;38.57;20.13;;;;;;;-141.97;68.97;46014.44;5092929;28;20220;-86
2023/12/25 05:53:42;;;;;;;63.97;32.60;;;;;;;-141.97;69.05;46502.47;5083661;28;20180;-86
2023/12/25 05:56:07;;;;;;;60.27;30.17;;;;;;;-141.97;69.20;46421.78;5073658;28;20714;-86
2023/12/25 05:58:32;;;;;;;73.23;35.47;;;;;;;-141.97;69.40;46108.59;5072728;28;20577;-85
2023/12/25 06:00:58;;;;;;;277.03;94.70;;;;;;;-141.97;69.49;46031.75;5074678;28;20181;-86
2023/12/25 06:03:23;;;;;;;268.80;96.63;;;;;;;-141.97;69.65;46075.94;5073292;28;20175;-85
2023/12/25 06:05:51;;;;;;;324.33;117.50;;;;;;;-141.97;69.82;46008.69;5075523;28;20172;-85
2023/12/25 06:08:20;;;;;;;157.37;60.57;;;;;;;-141.97;70.07;46116.28;5076745;28;20581;-85
2023/12/25 06:10:49;;;;;;;179.37;58.53;;;;;;;-141.97;70.50;45981.78;5076056;28;20455;-85
2023/12/25 06:13:14;;;;;;;116.60;43.77;;;;;;;-141.97;69.66;46104.75;5076277;28;20423;-85
2023/12/25 06:15:40;;;;;;;193.30;54.00;;;;;;;-141.97;70.04;46327.63;5077931;28;20418;-85
2023/12/25 06:18:05;;;;;;;66.13;27.37;;;;;;;-141.97;69.88;45897.25;5075931;28;20165;-86
2023/12/25 06:20:32;;;;;;;60.47;26.90;;;;;;;-141.97;69.75;45954.91;5076447;28;20168;-87
2023/12/25 06:22:57;;;;;;;60.30;27.60;;;;;;;-141.97;69.45;45851.16;5076387;28;20191;-85
2023/12/25 06:25:26;;;;;;;69.13;31.70;;;;;;;-141.97;69.68;45922.25;5074140;28;20427;-85
2023/12/25 06:27:52;;;;;;;81.17;38.80;;;;;;;-141.97;68.82;45874.22;5075142;28;20227;-85
2023/12/25 06:30:17;;;;;;;60.57;28.90;;;;;;;-141.97;67.63;46039.44;5075345;28;20520;-85
2023/12/25 06:32:43;;;;;;;63.87;32.53;;;;;;;-141.97;66.64;45960.66;5072678;28;20419;-85
2023/12/25 06:35:09;;;;;;;53.77;25.33;;;;;;;-141.97;64.64;45931.84;5075379;28;20172;-86
2023/12/25 06:37:34;;;;;;;39.20;20.90;;;;;;;-141.97;62.67;45853.06;5073137;28;20173;-85
2023/12/25 06:39:59;;;;;;;38.83;18.80;;;;;;;-141.97;60.90;45949.13;5071748;28;20655;-84
2023/12/25 06:42:26;;;;;;;109.57;45.97;;;;;;;-141.97;61.07;45901.09;5071876;28;20171;-88
2023/12/25 06:44:51;;;;;;;171.23;68.63;;;;;;;-141.97;60.85;45851.16;5077282;28;20645;-86
2023/12/25 06:47:17;;;;;;;115.23;48.37;;;;;;;-141.97;60.69;45835.78;5079408;28;20161;-86
2023/12/25 06:49:42;;;;;;;126.20;55.27;;;;;;;-141.97;61.45;45935.69;5076583;28;20228;-87
2023/12/25 06:52:09;;;;;;;122.27;58.43;;;;;;;-141.97;61.45;46004.84;5077195;28;20161;-87
2023/12/25 06:54:34;;;;;;;106.77;49.00;;;;;;;-141.97;61.51;45947.22;5076167;28;20187;-85
2023/12/25 06:57:00;;;;;;;90.13;44.10;;;;;;;-141.97;60.84;46356.44;5073802;28;20177;-85
2023/12/25 06:59:25;;;;;;;77.60;38.63;;;;;;;-141.97;51.19;46177.75;5076618;28;20174;-87
2023/12/25 07:01:51;;;;;;;74.97;38.87;;;;;;;-141.97;46.45;46285.34;5086320;28;20199;-87
2023/12/25 07:04:16;;;;;;;89.23;45.63;;;;;;;-141.97;42.01;45684.03;5083002;28;20200;-89
2023/12/25 07:06:42;;;;;;;42.80;24.50;;;;;;;-141.97;40.89;45685.94;5079730;28;20523;-86
2023/12/25 07:09:09;;;;;;;26.30;15.33;;;;;;;-141.97;40.87;45666.72;5080036;28;20165;-87
2023/12/25 07:11:35;;;;;;;35.17;19.70;;;;;;;-141.97;39.87;46029.81;5065271;28;20200;-87
2023/12/25 07:14:01;;;;;;;52.90;28.00;;;;;;;-141.97;38.54;45582.22;5083836;28;20203;-87
2023/12/25 07:16:29;;;;;;;249.40;118.60;;;;;;;-141.97;38.11;46258.44;5078031;28;20169;-87
2023/12/25 07:18:55;;;;;;;165.07;63.70;;;;;;;-141.97;38.55;46243.09;5075533;28;20233;-89
2023/12/25 07:21:21;;;;;;;114.63;50.33;;;;;;;-141.97;38.70;45572.59;5072617;28;20175;-84
2023/12/25 07:23:46;;;;;;;35.83;19.47;;;;;;;-141.97;40.85;46062.47;5074394;28;20201;-84
2023/12/25 07:26:12;;;;;;;18.13;10.33;;;;;;;-141.97;42.05;45929.91;5072361;28;20167;-83
2023/12/25 07:28:37;;;;;;;21.90;11.90;;;;;;;-141.97;44.42;45816.56;5071377;28;20168;-89
2023/12/25 07:31:03;;;;;;;27.77;16.67;;;;;;;-141.97;44.49;45822.34;5077678;28;20200;-84
2023/12/25 07:33:29;;;;;;;10.93;8.00;;;;;;;-141.97;46.80;45893.41;5074690;28;20176;-86
2023/12/25 07:38:30;;;;;;;13.70;8.30;;;;;;;-141.97;51.18;45858.84;5171372;22;20317;-90
2023/12/25 07:40:57;;;;;;;11.30;5.73;;;;;;;-141.97;51.32;45968.34;5006466;28;20267;-82
2023/12/25 07:43:24;;;;;;;25.80;10.50;;;;;;;-141.97;51.09;45806.97;4993862;28;20645;-84
2023/12/25 07:45:49;;;;;;;14.07;7.73;;;;;;;-141.97;50.66;46321.84;4994730;28;20258;-84
2023/12/25 07:48:16;;;;;;;10.47;6.10;;;;;;;-141.97;50.16;45824.25;4997493;28;20214;-86
2023/12/25 07:50:42;;;;;;;8.30;5.23;;;;;;;-141.97;49.01;45889.56;4993729;28;20195;-86
2023/12/25 07:53:09;;;;;;;14.30;7.83;;;;;;;-141.97;48.60;46239.25;5009987;28;20176;-84
2023/12/25 07:55:36;;;;;;;15.47;7.37;;;;;;;-141.97;47.96;45797.38;4994533;28;20184;-85
2023/12/25 07:58:02;;;;;;;27.97;13.70;;;;;;;-141.97;47.71;46223.88;4995322;28;20179;-85
2023/12/25 08:00:28;;;;;;;21.33;11.77;;;;;;;-141.97;47.10;45872.28;4995148;28;20682;-81
2023/12/25 08:02:54;;;;;;;20.00;10.30;;;;;;;-141.97;46.71;45793.53;4995600;28;20178;-80
2023/12/25 08:05:20;;;;;;;11.93;6.77;;;;;;;-141.97;45.87;46102.81;4996442;28;20183;-80
2023/12/25 08:07:46;;;;;;;11.77;6.20;;;;;;;-141.97;45.89;45745.50;4996223;28;20293;-83
2023/12/25 08:10:11;;;;;;;12.27;5.87;;;;;;;-141.97;45.05;45839.63;4994631;28;20199;-80
2023/12/25 08:12:42;;;;;;;15.20;7.87;;;;;;;-141.97;44.69;46106.66;4995269;28;20206;-81
2023/12/25 08:15:12;;;;;;;13.47;7.53;;;;;;;-141.97;44.04;45903.03;4995254;28;20633;-80
2023/12/25 08:17:38;;;;;;;14.03;7.37;;;;;;;-141.97;43.23;46179.69;4999125;28;20195;-88
2023/12/25 08:20:05;;;;;;;12.13;5.80;;;;;;;-141.97;42.39;46296.88;5000813;28;20613;-86
2023/12/25 08:22:30;;;;;;;9.97;5.93;;;;;;;-141.97;41.76;46085.53;4999476;28;20160;-87
2023/12/25 08:24:56;;;;;;;14.87;8.90;;;;;;;-141.97;40.88;45816.56;5000369;28;20178;-86
2023/12/25 08:27:21;;;;;;;19.13;9.77;;;;;;;-141.97;40.67;45843.47;5000087;28;20171;-88
2023/12/25 08:29:47;;;;;;;24.13;12.43;;;;;;;-141.97;40.23;45603.34;4998215;28;20203;-86
2023/12/25 08:32:13;;;;;;;34.63;16.67;;;;;;;-141.97;41.10;45732.06;4999790;28;20182;-88
2023/12/25 08:34:40;;;;;;;10.87;5.67;;;;;;;-141.97;40.49;45847.31;5000599;28;20249;-87
2023/12/25 08:37:08;;;;;;;12.37;6.73;;;;;;;-141.97;40.20;46231.56;5002424;28;20235;-89
2023/12/25 08:39:34;;;;;;;18.37;9.63;;;;;;;-141.97;39.83;45680.19;5003583;28;20202;-87
2023/12/25 08:42:02;;;;;;;12.97;6.90;;;;;;;-141.97;38.38;45728.22;4997657;28;20171;-87
2023/12/25 08:44:27;;;;;;;11.27;6.33;;;;;;;-141.97;38.27;45682.09;4996977;28;20175;-88
2023/12/25 08:46:53;;;;;;;9.07;5.50;;;;;;;-141.97;38.14;45801.22;4998698;28;20179;-87
2023/12/25 08:49:18;;;;;;;10.17;6.23;;;;;;;-141.97;38.87;46285.34;4997353;28;20225;-87
2023/12/25 08:51:44;;;;;;;12.03;4.90;;;;;;;-141.97;38.99;45659.06;4992944;28;20699;-88
2023/12/25 08:54:09;;;;;;;7.57;4.60;;;;;;;-141.97;39.54;45760.88;4993452;28;20236;-89
2023/12/25 08:56:35;;;;;;;9.20;4.70;;;;;;;-141.97;39.09;45639.84;4996010;28;20198;-90
2023/12/25 08:59:01;;;;;;;7.23;4.10;;;;;;;-141.97;38.90;45586.06;4996858;28;20164;-88
2023/12/25 09:01:29;;;;;;;10.13;5.23;;;;;;;-141.97;38.58;45833.88;4994043;28;20186;-87
2023/12/25 09:03:54;;;;;;;10.37;6.03;;;;;;;-141.97;38.75;46262.28;5014595;28;20195;-88
2023/12/25 09:06:20;;;;;;;13.27;5.87;;;;;;;-141.97;38.12;45751.25;5001137;28;20163;-88
2023/12/25 09:08:46;;;;;;;12.53;6.50;;;;;;;-141.97;38.18;45647.53;5003307;28;20195;-88
2023/12/25 09:11:11;;;;;;;18.97;9.87;;;;;;;-141.97;37.25;45757.03;5006919;28;20656;-89
2023/12/25 09:13:37;;;;;;;16.90;9.80;;;;;;;-141.97;35.64;45699.41;4999205;28;20159;-89
2023/12/25 09:16:03;;;;;;;14.17;6.70;;;;;;;-141.97;35.19;45760.88;4997649;28;20225;-85
2023/12/25 09:18:29;;;;;;;27.13;13.97;;;;;;;-141.97;34.72;45628.31;4996826;28;20171;-86
2023/12/25 09:20:57;;;;;;;22.57;11.07;;;;;;;-141.97;34.81;45951.06;5014818;28;20229;-88
2023/12/25 09:23:22;;;;;;;16.17;9.90;;;;;;;-141.97;35.00;45639.84;5001331;28;20183;-87
2023/12/25 09:25:48;;;;;;;22.90;11.73;;;;;;;-141.97;34.63;45741.66;5003091;28;20190;-88
2023/12/25 09:28:14;;;;;;;14.80;8.80;;;;;;;-141.97;34.03;45745.50;4998902;28;20197;-85
2023/12/25 09:30:39;;;;;;;10.23;6.27;;;;;;;-141.97;33.54;45933.75;4998396;28;20203;-88
2023/12/25 09:33:05;;;;;;;8.00;5.07;;;;;;;-141.97;32.88;45572.59;4999202;28;20584;-88
2023/12/25 09:35:30;;;;;;;10.60;4.87;;;;;;;-141.97;32.35;45659.06;4997629;28;20173;-88
2023/12/25 09:37:56;;;;;;;10.13;4.23;;;;;;;-141.97;31.79;45693.63;4997324;28;20223;-89
2023/12/25 09:40:21;;;;;;;7.30;4.47;;;;;;;-141.97;31.80;45693.63;4997128;28;20221;-90
2023/12/25 09:42:49;;;;;;;11.63;5.47;;;;;;;-141.97;31.06;45758.94;4995741;28;20177;-88
2023/12/25 09:45:17;;;;;;;6.43;4.07;;;;;;;-141.97;30.35;45801.22;4996950;28;20707;-87
2023/12/25 09:47:44;;;;;;;7.63;3.80;;;;;;;-141.97;31.00;45595.66;4998636;28;20230;-89
2023/12/25 09:50:10;;;;;;;15.90;8.33;;;;;;;-141.97;30.93;45564.94;4997685;28;20282;-87
2023/12/25 09:52:36;;;;;;;6.90;4.10;;;;;;;-141.97;30.35;45751.25;4995273;28;20208;-86
2023/12/25 09:55:01;;;;;;;20.47;6.20;;;;;;;-141.97;30.91;45618.72;4993329;28;20278;-89
2023/12/25 09:57:29;;;;;;;7.23;3.70;;;;;;;-141.97;30.54;45532.28;5001584;28;20250;-89
2023/12/25 09:59:56;;;;;;;5.73;3.10;;;;;;;-141.97;29.72;45718.59;5304747;23;20240;-89
2023/12/25 10:02:25;;;;;;;11.73;3.60;;;;;;;-141.97;29.91;45578.38;5064064;28;20218;-89
2023/12/25 10:04:51;;;;;;;6.90;3.80;;;;;;;-141.97;29.65;45735.91;5055851;28;20161;-89
2023/12/25 10:07:20;;;;;;;7.13;3.43;;;;;;;-141.97;29.85;45561.09;5054888;28;20760;-90
2023/12/25 10:09:48;;;;;;;4.23;2.77;;;;;;;-141.97;29.94;46089.38;5053985;28;20189;-90
2023/12/25 10:12:13;;;;;;;8.03;3.63;;;;;;;-141.97;30.38;45935.69;5056365;28;20674;-89
2023/12/25 10:14:39;;;;;;;7.97;3.83;;;;;;;-141.97;30.34;45528.44;5055660;28;20282;-90
2023/12/25 10:17:04;;;;;;;7.13;4.50;;;;;;;-141.97;30.16;45726.28;5058688;28;20185;-90
2023/12/25 10:19:29;;;;;;;9.93;5.10;;;;;;;-141.97;30.00;45555.31;5057771;28;20166;-87
2023/12/25 10:21:55;;;;;;;6.80;3.50;;;;;;;-141.97;30.21;45943.38;5066276;28;20195;-88
2023/12/25 10:24:29;;;;;;;9.10;4.50;;;;;;;-141.97;29.72;46075.94;5061886;28;20630;-87
2023/12/25 10:26:57;;;;;;;8.30;4.07;;;;;;;-141.97;29.93;45603.34;5048128;28;20190;-88
2023/12/25 10:29:33;;;;;;;10.07;4.30;;;;;;;-141.97;29.78;45956.81;5041644;28;20158;-90
2023/12/25 10:32:15;;;;;;;16.97;6.87;;;;;;;-141.97;29.41;46018.28;5038685;28;20257;-89
2023/12/25 10:34:41;;;;;;;15.30;7.70;;;;;;;-141.97;29.44;45977.94;5039040;28;20167;-89
2023/12/25 10:37:06;;;;;;;16.63;8.67;;;;;;;-141.97;29.47;45672.50;5039316;28;20171;-88
2023/12/25 10:39:33;;;;;;;13.43;5.90;;;;;;;-141.97;29.62;45703.22;5039399;28;20287;-88
2023/12/25 10:42:01;;;;;;;21.00;10.43;;;;;;;-141.97;29.19;45662.91;5055056;28;20273;-89
2023/12/25 10:44:28;;;;;;;18.87;8.63;;;;;;;-141.97;29.25;45582.22;5057464;28;20550;-89
2023/12/25 10:46:56;;;;;;;13.23;6.53;;;;;;;-141.97;29.47;45853.06;5055387;28;20168;-89
2023/12/25 10:49:23;;;;;;;7.53;4.80;;;;;;;-141.97;29.47;45563.00;5077875;28;20182;-88
2023/12/25 10:51:49;;;;;;;8.57;4.30;;;;;;;-141.97;28.88;45901.09;5042290;28;20193;-87
2023/12/25 10:54:16;;;;;;;7.87;3.80;;;;;;;-141.97;29.11;45611.03;5049544;28;20180;-86
2023/12/25 10:56:43;;;;;;;9.57;5.30;;;;;;;-141.97;29.54;45576.44;5049965;28;20180;-88
2023/12/25 10:59:10;;;;;;;13.03;7.40;;;;;;;-141.97;29.40;45662.91;5051986;28;20239;-88
2023/12/25 11:01:37;;;;;;;21.27;9.90;;;;;;;-141.97;29.36;45912.63;5053728;28;20181;-87